sensor_id;sensor_type;location;lat;lon;timestamp;P1;durP1;ratioP1;P2;durP2;ratioP2
22318;SDS011;11327;52.334;9.506;2024-01-07T00:01:23;15.53;;;9.93;;
22318;SDS011;11327;52.334;9.506;2024-01-07T00:04:43;16.52;;;10.28;;
22318;SDS011;11327;52.334;9.506;2024-01-07T00:08:04;17.25;;;10.72;;
22318;SDS011;11327;52.334;9.506;2024-01-07T00:11:25;18.37;;;10.45;;
22318;SDS011;11327;52.334;9.506;2024-01-07T00:14:46;17.50;;;10.70;;
22318;SDS011;11327;52.334;9.506;2024-01-07T00:18:07;18.42;;;11.28;;
22318;SDS011;11327;52.334;9.506;2024-01-07T00:21:27;15.95;;;10.15;;
22318;SDS011;11327;52.334;9.506;2024-01-07T00:24:49;16.90;;;10.85;;
22318;SDS011;11327;52.334;9.506;2024-01-07T00:28:10;16.67;;;10.88;;
22318;SDS011;11327;52.334;9.506;2024-01-07T00:31:31;15.43;;;10.50;;
22318;SDS011;11327;52.334;9.506;2024-01-07T00:34:52;19.12;;;11.50;;
22318;SDS011;11327;52.334;9.506;2024-01-07T00:38:13;17.40;;;10.48;;
22318;SDS011;11327;52.334;9.506;2024-01-07T00:41:34;18.23;;;11.00;;
22318;SDS011;11327;52.334;9.506;2024-01-07T00:44:55;16.30;;;10.58;;
22318;SDS011;11327;52.334;9.506;2024-01-07T00:48:15;18.27;;;11.78;;
22318;SDS011;11327;52.334;9.506;2024-01-07T00:51:36;20.97;;;11.50;;
22318;SDS011;11327;52.334;9.506;2024-01-07T00:54:57;16.42;;;10.53;;
22318;SDS011;11327;52.334;9.506;2024-01-07T00:58:17;17.07;;;10.72;;
22318;SDS011;11327;52.334;9.506;2024-01-07T01:01:38;17.23;;;10.82;;
22318;SDS011;11327;52.334;9.506;2024-01-07T01:04:59;16.70;;;10.60;;
22318;SDS011;11327;52.334;9.506;2024-01-07T01:08:19;15.85;;;9.93;;
22318;SDS011;11327;52.334;9.506;2024-01-07T01:11:40;16.17;;;10.15;;
22318;SDS011;11327;52.334;9.506;2024-01-07T01:15:01;16.57;;;10.95;;
22318;SDS011;11327;52.334;9.506;2024-01-07T01:18:22;16.07;;;10.38;;
22318;SDS011;11327;52.334;9.506;2024-01-07T01:21:42;16.60;;;10.43;;
22318;SDS011;11327;52.334;9.506;2024-01-07T01:25:03;17.20;;;10.70;;
22318;SDS011;11327;52.334;9.506;2024-01-07T01:28:25;16.67;;;11.20;;
22318;SDS011;11327;52.334;9.506;2024-01-07T01:31:45;17.05;;;10.23;;
22318;SDS011;11327;52.334;9.506;2024-01-07T01:35:06;18.10;;;10.68;;
22318;SDS011;11327;52.334;9.506;2024-01-07T01:38:27;17.00;;;11.00;;
22318;SDS011;11327;52.334;9.506;2024-01-07T01:41:48;17.67;;;10.63;;
22318;SDS011;11327;52.334;9.506;2024-01-07T01:45:09;19.80;;;11.35;;
22318;SDS011;11327;52.334;9.506;2024-01-07T01:48:30;20.65;;;11.50;;
22318;SDS011;11327;52.334;9.506;2024-01-07T01:51:50;17.55;;;10.23;;
22318;SDS011;11327;52.334;9.506;2024-01-07T01:55:13;16.55;;;10.55;;
22318;SDS011;11327;52.334;9.506;2024-01-07T01:58:34;17.75;;;10.93;;
22318;SDS011;11327;52.334;9.506;2024-01-07T02:01:54;18.65;;;11.05;;
22318;SDS011;11327;52.334;9.506;2024-01-07T02:05:15;17.92;;;10.18;;
22318;SDS011;11327;52.334;9.506;2024-01-07T02:08:36;16.52;;;9.88;;
22318;SDS011;11327;52.334;9.506;2024-01-07T02:12:00;16.02;;;9.43;;
22318;SDS011;11327;52.334;9.506;2024-01-07T02:15:25;15.93;;;9.20;;
22318;SDS011;11327;52.334;9.506;2024-01-07T02:18:46;16.55;;;9.73;;
22318;SDS011;11327;52.334;9.506;2024-01-07T02:22:06;18.37;;;10.08;;
22318;SDS011;11327;52.334;9.506;2024-01-07T02:25:27;15.40;;;9.28;;
22318;SDS011;11327;52.334;9.506;2024-01-07T02:28:48;16.87;;;10.25;;
22318;SDS011;11327;52.334;9.506;2024-01-07T02:32:09;16.00;;;9.53;;
22318;SDS011;11327;52.334;9.506;2024-01-07T02:35:29;15.78;;;9.75;;
22318;SDS011;11327;52.334;9.506;2024-01-07T02:38:50;17.90;;;10.03;;
22318;SDS011;11327;52.334;9.506;2024-01-07T02:42:11;16.25;;;9.75;;
22318;SDS011;11327;52.334;9.506;2024-01-07T02:45:31;17.20;;;9.95;;
22318;SDS011;11327;52.334;9.506;2024-01-07T02:48:52;18.23;;;10.78;;
22318;SDS011;11327;52.334;9.506;2024-01-07T02:52:13;17.15;;;9.93;;
22318;SDS011;11327;52.334;9.506;2024-01-07T02:55:33;16.23;;;9.50;;
22318;SDS011;11327;52.334;9.506;2024-01-07T02:58:54;15.00;;;8.98;;
22318;SDS011;11327;52.334;9.506;2024-01-07T03:02:15;18.17;;;9.10;;
22318;SDS011;11327;52.334;9.506;2024-01-07T03:05:36;16.42;;;8.88;;
22318;SDS011;11327;52.334;9.506;2024-01-07T03:08:56;15.40;;;8.85;;
22318;SDS011;11327;52.334;9.506;2024-01-07T03:12:17;15.00;;;8.73;;
22318;SDS011;11327;52.334;9.506;2024-01-07T03:15:38;16.87;;;9.23;;
22318;SDS011;11327;52.334;9.506;2024-01-07T03:18:58;14.20;;;8.55;;
22318;SDS011;11327;52.334;9.506;2024-01-07T03:22:19;13.18;;;8.53;;
22318;SDS011;11327;52.334;9.506;2024-01-07T03:25:40;14.75;;;8.45;;
22318;SDS011;11327;52.334;9.506;2024-01-07T03:29:01;13.08;;;7.28;;
22318;SDS011;11327;52.334;9.506;2024-01-07T03:32:22;12.28;;;7.70;;
22318;SDS011;11327;52.334;9.506;2024-01-07T03:35:43;15.78;;;7.62;;
22318;SDS011;11327;52.334;9.506;2024-01-07T03:39:04;14.60;;;8.23;;
22318;SDS011;11327;52.334;9.506;2024-01-07T03:42:24;11.97;;;7.92;;
22318;SDS011;11327;52.334;9.506;2024-01-07T03:45:45;14.13;;;8.10;;
22318;SDS011;11327;52.334;9.506;2024-01-07T03:49:06;11.80;;;7.55;;
22318;SDS011;11327;52.334;9.506;2024-01-07T03:52:26;11.73;;;6.90;;
22318;SDS011;11327;52.334;9.506;2024-01-07T03:55:48;12.47;;;7.30;;
22318;SDS011;11327;52.334;9.506;2024-01-07T03:59:09;11.95;;;6.55;;
22318;SDS011;11327;52.334;9.506;2024-01-07T04:02:30;10.45;;;6.67;;
22318;SDS011;11327;52.334;9.506;2024-01-07T04:05:51;13.28;;;6.40;;
22318;SDS011;11327;52.334;9.506;2024-01-07T04:09:11;11.15;;;6.97;;
22318;SDS011;11327;52.334;9.506;2024-01-07T04:12:32;11.18;;;6.90;;
22318;SDS011;11327;52.334;9.506;2024-01-07T04:15:53;11.80;;;6.80;;
22318;SDS011;11327;52.334;9.506;2024-01-07T04:19:14;9.78;;;6.22;;
22318;SDS011;11327;52.334;9.506;2024-01-07T04:22:34;9.35;;;5.80;;
22318;SDS011;11327;52.334;9.506;2024-01-07T04:25:55;10.38;;;5.97;;
22318;SDS011;11327;52.334;9.506;2024-01-07T04:29:16;9.70;;;5.90;;
22318;SDS011;11327;52.334;9.506;2024-01-07T04:32:36;8.80;;;5.47;;
22318;SDS011;11327;52.334;9.506;2024-01-07T04:35:57;8.30;;;5.00;;
22318;SDS011;11327;52.334;9.506;2024-01-07T04:39:19;8.40;;;5.08;;
22318;SDS011;11327;52.334;9.506;2024-01-07T04:42:40;7.45;;;4.37;;
22318;SDS011;11327;52.334;9.506;2024-01-07T04:46:01;7.35;;;4.90;;
22318;SDS011;11327;52.334;9.506;2024-01-07T04:49:22;8.70;;;4.55;;
22318;SDS011;11327;52.334;9.506;2024-01-07T04:52:42;6.20;;;4.10;;
22318;SDS011;11327;52.334;9.506;2024-01-07T04:56:03;8.68;;;4.87;;
22318;SDS011;11327;52.334;9.506;2024-01-07T04:59:24;8.13;;;4.30;;
22318;SDS011;11327;52.334;9.506;2024-01-07T05:02:45;7.87;;;4.50;;
22318;SDS011;11327;52.334;9.506;2024-01-07T05:06:08;7.50;;;3.85;;
22318;SDS011;11327;52.334;9.506;2024-01-07T05:09:31;6.62;;;3.92;;
22318;SDS011;11327;52.334;9.506;2024-01-07T05:12:52;6.55;;;3.87;;
22318;SDS011;11327;52.334;9.506;2024-01-07T05:16:19;6.90;;;3.65;;
22318;SDS011;11327;52.334;9.506;2024-01-07T05:19:40;6.00;;;3.70;;
22318;SDS011;11327;52.334;9.506;2024-01-07T05:23:02;7.33;;;4.12;;
22318;SDS011;11327;52.334;9.506;2024-01-07T05:26:22;5.42;;;3.72;;
22318;SDS011;11327;52.334;9.506;2024-01-07T05:29:46;8.75;;;3.80;;
22318;SDS011;11327;52.334;9.506;2024-01-07T05:33:07;6.78;;;4.10;;
22318;SDS011;11327;52.334;9.506;2024-01-07T05:36:28;6.72;;;4.10;;
22318;SDS011;11327;52.334;9.506;2024-01-07T05:39:49;6.12;;;3.90;;
22318;SDS011;11327;52.334;9.506;2024-01-07T05:43:10;8.05;;;4.03;;
22318;SDS011;11327;52.334;9.506;2024-01-07T05:46:30;6.67;;;4.00;;
22318;SDS011;11327;52.334;9.506;2024-01-07T05:49:51;8.23;;;4.03;;
22318;SDS011;11327;52.334;9.506;2024-01-07T05:53:12;6.95;;;3.77;;
22318;SDS011;11327;52.334;9.506;2024-01-07T05:56:37;5.95;;;3.47;;
22318;SDS011;11327;52.334;9.506;2024-01-07T05:59:59;5.62;;;3.80;;
22318;SDS011;11327;52.334;9.506;2024-01-07T06:03:20;6.35;;;4.00;;
22318;SDS011;11327;52.334;9.506;2024-01-07T06:06:40;7.05;;;3.90;;
22318;SDS011;11327;52.334;9.506;2024-01-07T06:10:01;7.10;;;4.17;;
22318;SDS011;11327;52.334;9.506;2024-01-07T06:13:22;5.05;;;3.45;;
22318;SDS011;11327;52.334;9.506;2024-01-07T06:16:43;6.30;;;3.90;;
22318;SDS011;11327;52.334;9.506;2024-01-07T06:20:04;6.12;;;4.03;;
22318;SDS011;11327;52.334;9.506;2024-01-07T06:23:26;5.58;;;3.67;;
22318;SDS011;11327;52.334;9.506;2024-01-07T06:26:47;5.67;;;3.52;;
22318;SDS011;11327;52.334;9.506;2024-01-07T06:30:08;7.87;;;3.75;;
22318;SDS011;11327;52.334;9.506;2024-01-07T06:33:29;6.08;;;3.45;;
22318;SDS011;11327;52.334;9.506;2024-01-07T06:36:50;5.20;;;3.30;;
22318;SDS011;11327;52.334;9.506;2024-01-07T06:40:10;5.65;;;3.20;;
22318;SDS011;11327;52.334;9.506;2024-01-07T06:43:32;5.33;;;3.15;;
22318;SDS011;11327;52.334;9.506;2024-01-07T06:46:52;5.75;;;3.05;;
22318;SDS011;11327;52.334;9.506;2024-01-07T06:50:13;5.05;;;3.10;;
22318;SDS011;11327;52.334;9.506;2024-01-07T06:53:34;4.60;;;3.30;;
22318;SDS011;11327;52.334;9.506;2024-01-07T06:56:54;5.60;;;3.30;;
22318;SDS011;11327;52.334;9.506;2024-01-07T07:00:15;4.42;;;3.22;;
22318;SDS011;11327;52.334;9.506;2024-01-07T07:03:38;5.12;;;3.50;;
22318;SDS011;11327;52.334;9.506;2024-01-07T07:06:59;5.62;;;3.60;;
22318;SDS011;11327;52.334;9.506;2024-01-07T07:10:20;5.78;;;3.25;;
22318;SDS011;11327;52.334;9.506;2024-01-07T07:13:41;5.30;;;3.35;;
22318;SDS011;11327;52.334;9.506;2024-01-07T07:17:02;5.00;;;2.98;;
22318;SDS011;11327;52.334;9.506;2024-01-07T07:20:23;6.50;;;3.12;;
22318;SDS011;11327;52.334;9.506;2024-01-07T07:23:44;6.03;;;3.27;;
22318;SDS011;11327;52.334;9.506;2024-01-07T07:27:05;6.35;;;3.47;;
22318;SDS011;11327;52.334;9.506;2024-01-07T07:30:25;5.08;;;3.15;;
22318;SDS011;11327;52.334;9.506;2024-01-07T07:33:46;5.08;;;3.30;;
22318;SDS011;11327;52.334;9.506;2024-01-07T07:37:07;4.72;;;3.10;;
22318;SDS011;11327;52.334;9.506;2024-01-07T07:40:28;5.95;;;3.62;;
22318;SDS011;11327;52.334;9.506;2024-01-07T07:43:48;6.83;;;3.65;;
22318;SDS011;11327;52.334;9.506;2024-01-07T07:47:09;5.65;;;3.60;;
22318;SDS011;11327;52.334;9.506;2024-01-07T07:50:32;5.70;;;3.67;;
22318;SDS011;11327;52.334;9.506;2024-01-07T07:53:52;5.78;;;3.40;;
22318;SDS011;11327;52.334;9.506;2024-01-07T07:57:13;5.55;;;3.55;;
22318;SDS011;11327;52.334;9.506;2024-01-07T08:00:34;5.75;;;3.80;;
22318;SDS011;11327;52.334;9.506;2024-01-07T08:03:54;6.08;;;3.98;;
22318;SDS011;11327;52.334;9.506;2024-01-07T08:07:15;6.75;;;3.98;;
22318;SDS011;11327;52.334;9.506;2024-01-07T08:10:36;6.10;;;3.77;;
22318;SDS011;11327;52.334;9.506;2024-01-07T08:13:57;6.35;;;3.98;;
22318;SDS011;11327;52.334;9.506;2024-01-07T08:17:17;6.20;;;3.83;;
22318;SDS011;11327;52.334;9.506;2024-01-07T08:20:38;6.90;;;4.33;;
22318;SDS011;11327;52.334;9.506;2024-01-07T08:23:59;8.05;;;4.10;;
22318;SDS011;11327;52.334;9.506;2024-01-07T08:27:20;6.67;;;4.15;;
22318;SDS011;11327;52.334;9.506;2024-01-07T08:30:40;8.35;;;4.75;;
22318;SDS011;11327;52.334;9.506;2024-01-07T08:34:01;7.33;;;4.12;;
22318;SDS011;11327;52.334;9.506;2024-01-07T08:37:22;6.78;;;4.05;;
22318;SDS011;11327;52.334;9.506;2024-01-07T08:40:43;7.25;;;4.40;;
22318;SDS011;11327;52.334;9.506;2024-01-07T08:44:04;6.50;;;3.95;;
22318;SDS011;11327;52.334;9.506;2024-01-07T08:47:24;5.95;;;3.80;;
22318;SDS011;11327;52.334;9.506;2024-01-07T08:50:45;5.40;;;3.75;;
22318;SDS011;11327;52.334;9.506;2024-01-07T08:54:06;7.83;;;4.22;;
22318;SDS011;11327;52.334;9.506;2024-01-07T08:57:27;6.10;;;3.98;;
22318;SDS011;11327;52.334;9.506;2024-01-07T09:00:48;5.80;;;4.08;;
22318;SDS011;11327;52.334;9.506;2024-01-07T09:04:09;5.92;;;4.17;;
22318;SDS011;11327;52.334;9.506;2024-01-07T09:07:29;7.40;;;5.00;;
22318;SDS011;11327;52.334;9.506;2024-01-07T09:10:50;8.55;;;5.47;;
22318;SDS011;11327;52.334;9.506;2024-01-07T09:14:11;8.98;;;5.15;;
22318;SDS011;11327;52.334;9.506;2024-01-07T09:17:31;15.58;;;8.98;;
22318;SDS011;11327;52.334;9.506;2024-01-07T09:20:52;6.08;;;4.20;;
22318;SDS011;11327;52.334;9.506;2024-01-07T09:24:13;6.40;;;4.60;;
22318;SDS011;11327;52.334;9.506;2024-01-07T09:27:34;6.60;;;4.05;;
22318;SDS011;11327;52.334;9.506;2024-01-07T09:30:55;6.53;;;4.08;;
22318;SDS011;11327;52.334;9.506;2024-01-07T09:34:15;7.83;;;4.10;;
22318;SDS011;11327;52.334;9.506;2024-01-07T09:37:36;7.92;;;4.85;;
22318;SDS011;11327;52.334;9.506;2024-01-07T09:40:57;6.37;;;3.80;;
22318;SDS011;11327;52.334;9.506;2024-01-07T09:44:18;5.08;;;3.55;;
22318;SDS011;11327;52.334;9.506;2024-01-07T09:47:41;5.28;;;3.22;;
22318;SDS011;11327;52.334;9.506;2024-01-07T09:51:04;6.05;;;3.70;;
22318;SDS011;11327;52.334;9.506;2024-01-07T09:54:29;6.92;;;3.67;;
22318;SDS011;11327;52.334;9.506;2024-01-07T09:57:50;7.03;;;3.92;;
22318;SDS011;11327;52.334;9.506;2024-01-07T10:01:11;5.75;;;3.20;;
22318;SDS011;11327;52.334;9.506;2024-01-07T10:04:32;5.92;;;3.35;;
22318;SDS011;11327;52.334;9.506;2024-01-07T10:07:54;6.80;;;3.10;;
22318;SDS011;11327;52.334;9.506;2024-01-07T10:11:16;4.67;;;3.17;;
22318;SDS011;11327;52.334;9.506;2024-01-07T10:14:38;5.53;;;3.05;;
22318;SDS011;11327;52.334;9.506;2024-01-07T10:18:04;5.78;;;3.20;;
22318;SDS011;11327;52.334;9.506;2024-01-07T10:21:26;6.53;;;2.98;;
22318;SDS011;11327;52.334;9.506;2024-01-07T10:24:46;6.00;;;2.98;;
22318;SDS011;11327;52.334;9.506;2024-01-07T10:28:09;7.85;;;4.05;;
22318;SDS011;11327;52.334;9.506;2024-01-07T10:31:34;9.03;;;4.00;;
22318;SDS011;11327;52.334;9.506;2024-01-07T10:34:57;7.47;;;4.15;;
22318;SDS011;11327;52.334;9.506;2024-01-07T10:38:20;6.00;;;3.22;;
22318;SDS011;11327;52.334;9.506;2024-01-07T10:41:42;4.45;;;3.02;;
22318;SDS011;11327;52.334;9.506;2024-01-07T10:45:05;4.47;;;3.00;;
22318;SDS011;11327;52.334;9.506;2024-01-07T10:48:26;4.95;;;2.90;;
22318;SDS011;11327;52.334;9.506;2024-01-07T10:51:56;4.83;;;3.10;;
22318;SDS011;11327;52.334;9.506;2024-01-07T10:55:28;5.47;;;3.47;;
22318;SDS011;11327;52.334;9.506;2024-01-07T10:58:52;5.22;;;3.60;;
22318;SDS011;11327;52.334;9.506;2024-01-07T11:02:14;6.87;;;3.55;;
22318;SDS011;11327;52.334;9.506;2024-01-07T11:05:49;5.67;;;3.33;;
22318;SDS011;11327;52.334;9.506;2024-01-07T11:13:11;5.12;;;3.52;;
22318;SDS011;11327;52.334;9.506;2024-01-07T11:20:12;10.40;;;6.97;;
22318;SDS011;11327;52.334;9.506;2024-01-07T11:23:33;7.97;;;5.35;;
22318;SDS011;11327;52.334;9.506;2024-01-07T11:27:01;5.92;;;4.72;;
22318;SDS011;11327;52.334;9.506;2024-01-07T11:30:22;7.17;;;4.20;;
22318;SDS011;11327;52.334;9.506;2024-01-07T11:33:43;6.83;;;4.40;;
22318;SDS011;11327;52.334;9.506;2024-01-07T11:37:11;9.93;;;5.28;;
22318;SDS011;11327;52.334;9.506;2024-01-07T11:40:33;9.15;;;5.10;;
22318;SDS011;11327;52.334;9.506;2024-01-07T11:43:55;10.45;;;5.40;;
22318;SDS011;11327;52.334;9.506;2024-01-07T11:47:19;7.62;;;4.80;;
22318;SDS011;11327;52.334;9.506;2024-01-07T11:50:41;11.30;;;5.22;;
22318;SDS011;11327;52.334;9.506;2024-01-07T11:54:02;9.95;;;6.17;;
22318;SDS011;11327;52.334;9.506;2024-01-07T11:57:23;10.35;;;5.55;;
22318;SDS011;11327;52.334;9.506;2024-01-07T12:00:44;11.20;;;5.37;;
22318;SDS011;11327;52.334;9.506;2024-01-07T12:04:04;12.07;;;5.42;;
22318;SDS011;11327;52.334;9.506;2024-01-07T12:07:25;8.23;;;5.17;;
22318;SDS011;11327;52.334;9.506;2024-01-07T12:10:46;10.55;;;5.62;;
22318;SDS011;11327;52.334;9.506;2024-01-07T12:14:08;9.45;;;5.12;;
22318;SDS011;11327;52.334;9.506;2024-01-07T12:17:31;12.78;;;5.45;;
22318;SDS011;11327;52.334;9.506;2024-01-07T12:20:55;7.35;;;4.08;;
22318;SDS011;11327;52.334;9.506;2024-01-07T12:24:18;6.37;;;4.25;;
22318;SDS011;11327;52.334;9.506;2024-01-07T12:27:40;7.45;;;4.40;;
22318;SDS011;11327;52.334;9.506;2024-01-07T12:31:01;7.08;;;4.35;;
22318;SDS011;11327;52.334;9.506;2024-01-07T12:34:23;9.68;;;4.50;;
22318;SDS011;11327;52.334;9.506;2024-01-07T12:37:45;10.20;;;5.30;;
22318;SDS011;11327;52.334;9.506;2024-01-07T12:41:05;10.23;;;5.67;;
22318;SDS011;11327;52.334;9.506;2024-01-07T12:44:27;9.15;;;4.83;;
22318;SDS011;11327;52.334;9.506;2024-01-07T12:47:49;8.33;;;4.65;;
22318;SDS011;11327;52.334;9.506;2024-01-07T12:51:09;7.62;;;4.60;;
22318;SDS011;11327;52.334;9.506;2024-01-07T12:54:30;5.72;;;3.92;;
22318;SDS011;11327;52.334;9.506;2024-01-07T12:57:51;5.42;;;3.50;;
22318;SDS011;11327;52.334;9.506;2024-01-07T13:01:11;5.85;;;3.47;;
22318;SDS011;11327;52.334;9.506;2024-01-07T13:04:32;6.28;;;3.50;;
22318;SDS011;11327;52.334;9.506;2024-01-07T13:07:53;5.47;;;3.77;;
22318;SDS011;11327;52.334;9.506;2024-01-07T13:11:14;4.95;;;3.15;;
22318;SDS011;11327;52.334;9.506;2024-01-07T13:14:36;7.25;;;3.85;;
22318;SDS011;11327;52.334;9.506;2024-01-07T13:17:57;5.97;;;3.22;;
22318;SDS011;11327;52.334;9.506;2024-01-07T13:21:18;5.62;;;3.40;;
22318;SDS011;11327;52.334;9.506;2024-01-07T13:24:39;4.47;;;3.00;;
22318;SDS011;11327;52.334;9.506;2024-01-07T13:28:01;3.95;;;2.75;;
22318;SDS011;11327;52.334;9.506;2024-01-07T13:31:22;5.10;;;3.50;;
22318;SDS011;11327;52.334;9.506;2024-01-07T13:34:44;4.72;;;2.90;;
22318;SDS011;11327;52.334;9.506;2024-01-07T13:38:04;6.70;;;4.17;;
22318;SDS011;11327;52.334;9.506;2024-01-07T13:41:25;7.67;;;4.28;;
22318;SDS011;11327;52.334;9.506;2024-01-07T13:44:48;5.80;;;3.70;;
22318;SDS011;11327;52.334;9.506;2024-01-07T13:48:09;4.72;;;2.98;;
22318;SDS011;11327;52.334;9.506;2024-01-07T13:51:29;4.25;;;3.00;;
22318;SDS011;11327;52.334;9.506;2024-01-07T13:54:50;4.17;;;3.10;;
22318;SDS011;11327;52.334;9.506;2024-01-07T13:58:11;5.42;;;2.80;;
22318;SDS011;11327;52.334;9.506;2024-01-07T14:01:32;4.28;;;2.90;;
22318;SDS011;11327;52.334;9.506;2024-01-07T14:04:52;5.35;;;2.98;;
22318;SDS011;11327;52.334;9.506;2024-01-07T14:08:13;5.20;;;2.83;;
22318;SDS011;11327;52.334;9.506;2024-01-07T14:11:34;4.45;;;2.80;;
22318;SDS011;11327;52.334;9.506;2024-01-07T14:14:55;4.70;;;2.98;;
22318;SDS011;11327;52.334;9.506;2024-01-07T14:18:16;5.45;;;2.90;;
22318;SDS011;11327;52.334;9.506;2024-01-07T14:21:39;4.60;;;2.55;;
22318;SDS011;11327;52.334;9.506;2024-01-07T14:24:59;5.62;;;2.33;;
22318;SDS011;11327;52.334;9.506;2024-01-07T14:28:20;5.72;;;2.70;;
22318;SDS011;11327;52.334;9.506;2024-01-07T14:31:41;6.35;;;2.85;;
22318;SDS011;11327;52.334;9.506;2024-01-07T14:35:02;5.72;;;3.00;;
22318;SDS011;11327;52.334;9.506;2024-01-07T14:38:23;4.65;;;2.42;;
22318;SDS011;11327;52.334;9.506;2024-01-07T14:41:45;3.85;;;2.55;;
22318;SDS011;11327;52.334;9.506;2024-01-07T14:45:07;9.10;;;4.35;;
22318;SDS011;11327;52.334;9.506;2024-01-07T14:48:29;13.83;;;9.53;;
22318;SDS011;11327;52.334;9.506;2024-01-07T14:51:50;14.87;;;9.38;;
22318;SDS011;11327;52.334;9.506;2024-01-07T14:55:11;7.83;;;5.80;;
22318;SDS011;11327;52.334;9.506;2024-01-07T14:58:33;7.47;;;4.22;;
22318;SDS011;11327;52.334;9.506;2024-01-07T15:01:53;6.00;;;4.00;;
22318;SDS011;11327;52.334;9.506;2024-01-07T15:05:14;7.92;;;4.65;;
22318;SDS011;11327;52.334;9.506;2024-01-07T15:08:35;5.92;;;3.72;;
22318;SDS011;11327;52.334;9.506;2024-01-07T15:11:56;9.08;;;5.20;;
22318;SDS011;11327;52.334;9.506;2024-01-07T15:15:17;6.78;;;4.00;;
22318;SDS011;11327;52.334;9.506;2024-01-07T15:18:39;6.20;;;3.80;;
22318;SDS011;11327;52.334;9.506;2024-01-07T15:21:59;7.22;;;3.87;;
22318;SDS011;11327;52.334;9.506;2024-01-07T15:25:20;7.47;;;3.75;;
22318;SDS011;11327;52.334;9.506;2024-01-07T15:28:41;6.62;;;4.05;;
22318;SDS011;11327;52.334;9.506;2024-01-07T15:32:02;6.08;;;4.37;;
22318;SDS011;11327;52.334;9.506;2024-01-07T15:35:23;6.40;;;3.60;;
22318;SDS011;11327;52.334;9.506;2024-01-07T15:38:44;5.72;;;3.50;;
22318;SDS011;11327;52.334;9.506;2024-01-07T15:42:04;6.72;;;3.33;;
22318;SDS011;11327;52.334;9.506;2024-01-07T15:45:25;4.45;;;3.08;;
22318;SDS011;11327;52.334;9.506;2024-01-07T15:48:46;5.83;;;3.40;;
22318;SDS011;11327;52.334;9.506;2024-01-07T15:52:06;7.05;;;3.50;;
22318;SDS011;11327;52.334;9.506;2024-01-07T15:55:27;10.18;;;5.72;;
22318;SDS011;11327;52.334;9.506;2024-01-07T15:58:48;6.60;;;4.72;;
22318;SDS011;11327;52.334;9.506;2024-01-07T16:02:09;5.62;;;3.95;;
22318;SDS011;11327;52.334;9.506;2024-01-07T16:05:30;5.28;;;3.45;;
22318;SDS011;11327;52.334;9.506;2024-01-07T16:08:50;6.87;;;4.17;;
22318;SDS011;11327;52.334;9.506;2024-01-07T16:12:11;7.28;;;3.90;;
22318;SDS011;11327;52.334;9.506;2024-01-07T16:15:34;7.03;;;4.30;;
22318;SDS011;11327;52.334;9.506;2024-01-07T16:18:54;8.48;;;4.47;;
22318;SDS011;11327;52.334;9.506;2024-01-07T16:22:15;5.45;;;3.47;;
22318;SDS011;11327;52.334;9.506;2024-01-07T16:25:36;6.12;;;3.90;;
22318;SDS011;11327;52.334;9.506;2024-01-07T16:28:57;7.85;;;4.05;;
22318;SDS011;11327;52.334;9.506;2024-01-07T16:32:18;7.85;;;4.22;;
22318;SDS011;11327;52.334;9.506;2024-01-07T16:35:39;7.53;;;4.10;;
22318;SDS011;11327;52.334;9.506;2024-01-07T16:39:00;6.35;;;3.52;;
22318;SDS011;11327;52.334;9.506;2024-01-07T16:42:22;7.10;;;4.12;;
22318;SDS011;11327;52.334;9.506;2024-01-07T16:45:43;5.62;;;3.67;;
22318;SDS011;11327;52.334;9.506;2024-01-07T16:49:04;6.08;;;4.05;;
22318;SDS011;11327;52.334;9.506;2024-01-07T16:52:25;7.72;;;4.12;;
22318;SDS011;11327;52.334;9.506;2024-01-07T16:55:46;5.62;;;4.03;;
22318;SDS011;11327;52.334;9.506;2024-01-07T16:59:07;8.00;;;4.10;;
22318;SDS011;11327;52.334;9.506;2024-01-07T17:02:28;8.13;;;4.78;;
22318;SDS011;11327;52.334;9.506;2024-01-07T17:05:51;8.30;;;4.85;;
22318;SDS011;11327;52.334;9.506;2024-01-07T17:09:11;13.65;;;5.60;;
22318;SDS011;11327;52.334;9.506;2024-01-07T17:12:32;9.08;;;5.33;;
22318;SDS011;11327;52.334;9.506;2024-01-07T17:15:53;23.98;;;12.65;;
22318;SDS011;11327;52.334;9.506;2024-01-07T17:19:13;26.05;;;15.28;;
22318;SDS011;11327;52.334;9.506;2024-01-07T17:22:34;17.52;;;12.05;;
22318;SDS011;11327;52.334;9.506;2024-01-07T17:25:55;13.53;;;8.18;;
22318;SDS011;11327;52.334;9.506;2024-01-07T17:29:17;6.70;;;4.05;;
22318;SDS011;11327;52.334;9.506;2024-01-07T17:32:37;9.73;;;4.67;;
22318;SDS011;11327;52.334;9.506;2024-01-07T17:35:58;9.10;;;4.47;;
22318;SDS011;11327;52.334;9.506;2024-01-07T17:39:19;7.05;;;4.35;;
22318;SDS011;11327;52.334;9.506;2024-01-07T17:42:40;7.05;;;4.87;;
22318;SDS011;11327;52.334;9.506;2024-01-07T17:46:01;7.87;;;4.65;;
22318;SDS011;11327;52.334;9.506;2024-01-07T17:49:22;7.65;;;4.30;;
22318;SDS011;11327;52.334;9.506;2024-01-07T17:52:43;6.47;;;4.05;;
22318;SDS011;11327;52.334;9.506;2024-01-07T17:56:04;6.92;;;4.10;;
22318;SDS011;11327;52.334;9.506;2024-01-07T17:59:26;7.03;;;4.05;;
22318;SDS011;11327;52.334;9.506;2024-01-07T18:02:48;5.65;;;4.20;;
22318;SDS011;11327;52.334;9.506;2024-01-07T18:06:08;7.97;;;4.28;;
22318;SDS011;11327;52.334;9.506;2024-01-07T18:09:29;8.28;;;4.40;;
22318;SDS011;11327;52.334;9.506;2024-01-07T18:12:50;7.92;;;4.20;;
22318;SDS011;11327;52.334;9.506;2024-01-07T18:16:10;6.60;;;4.15;;
22318;SDS011;11327;52.334;9.506;2024-01-07T18:19:33;7.25;;;4.00;;
22318;SDS011;11327;52.334;9.506;2024-01-07T18:22:54;6.15;;;3.40;;
22318;SDS011;11327;52.334;9.506;2024-01-07T18:26:15;6.78;;;3.55;;
22318;SDS011;11327;52.334;9.506;2024-01-07T18:29:36;4.85;;;3.15;;
22318;SDS011;11327;52.334;9.506;2024-01-07T18:32:57;6.22;;;3.40;;
22318;SDS011;11327;52.334;9.506;2024-01-07T18:36:17;5.65;;;3.27;;
22318;SDS011;11327;52.334;9.506;2024-01-07T18:39:38;6.75;;;3.92;;
22318;SDS011;11327;52.334;9.506;2024-01-07T18:42:59;6.28;;;3.45;;
22318;SDS011;11327;52.334;9.506;2024-01-07T18:46:21;6.17;;;3.47;;
22318;SDS011;11327;52.334;9.506;2024-01-07T18:49:42;5.62;;;3.62;;
22318;SDS011;11327;52.334;9.506;2024-01-07T18:53:03;5.67;;;3.08;;
22318;SDS011;11327;52.334;9.506;2024-01-07T18:56:23;6.65;;;3.58;;
22318;SDS011;11327;52.334;9.506;2024-01-07T18:59:44;6.47;;;3.60;;
22318;SDS011;11327;52.334;9.506;2024-01-07T19:03:05;5.92;;;2.98;;
22318;SDS011;11327;52.334;9.506;2024-01-07T19:06:25;5.03;;;2.98;;
22318;SDS011;11327;52.334;9.506;2024-01-07T19:09:46;6.58;;;3.70;;
22318;SDS011;11327;52.334;9.506;2024-01-07T19:13:07;6.80;;;3.40;;
22318;SDS011;11327;52.334;9.506;2024-01-07T19:16:28;5.97;;;3.58;;
22318;SDS011;11327;52.334;9.506;2024-01-07T19:19:49;6.78;;;3.15;;
22318;SDS011;11327;52.334;9.506;2024-01-07T19:23:10;6.05;;;3.33;;
22318;SDS011;11327;52.334;9.506;2024-01-07T19:26:31;6.60;;;2.72;;
22318;SDS011;11327;52.334;9.506;2024-01-07T19:29:51;5.58;;;3.40;;
22318;SDS011;11327;52.334;9.506;2024-01-07T19:33:12;5.35;;;3.20;;
22318;SDS011;11327;52.334;9.506;2024-01-07T19:36:33;4.20;;;2.98;;
22318;SDS011;11327;52.334;9.506;2024-01-07T19:39:54;5.58;;;3.00;;
22318;SDS011;11327;52.334;9.506;2024-01-07T19:43:17;5.90;;;3.08;;
22318;SDS011;11327;52.334;9.506;2024-01-07T19:46:38;5.00;;;3.37;;
22318;SDS011;11327;52.334;9.506;2024-01-07T19:49:58;4.45;;;3.02;;
22318;SDS011;11327;52.334;9.506;2024-01-07T19:53:19;4.83;;;2.95;;
22318;SDS011;11327;52.334;9.506;2024-01-07T19:56:40;4.47;;;3.02;;
22318;SDS011;11327;52.334;9.506;2024-01-07T20:00:01;4.97;;;2.92;;
22318;SDS011;11327;52.334;9.506;2024-01-07T20:03:22;5.03;;;3.08;;
22318;SDS011;11327;52.334;9.506;2024-01-07T20:06:44;4.45;;;3.02;;
22318;SDS011;11327;52.334;9.506;2024-01-07T20:10:06;5.17;;;3.02;;
22318;SDS011;11327;52.334;9.506;2024-01-07T20:13:27;4.45;;;3.20;;